sensor_id;sensor_type;location;lat;lon;timestamp;pressure;altitude;pressure_sealevel;temperature;humidity
26376;BME280;30544;42.196;24.336;2023-10-19T00:02:08;99345.88;;;12.78;nan
26376;BME280;30544;42.196;24.336;2023-10-19T00:04:34;99340.81;;;12.75;nan
26376;BME280;30544;42.196;24.336;2023-10-19T00:07:03;99340.50;;;12.72;nan
26376;BME280;30544;42.196;24.336;2023-10-19T00:09:30;99331.25;;;12.66;nan
26376;BME280;30544;42.196;24.336;2023-10-19T00:12:04;99328.41;;;12.61;nan
26376;BME280;30544;42.196;24.336;2023-10-19T00:14:34;99324.78;;;12.60;nan
26376;BME280;30544;42.196;24.336;2023-10-19T00:17:00;99314.72;;;12.59;nan
26376;BME280;30544;42.196;24.336;2023-10-19T00:19:32;99319.97;;;12.56;nan
26376;BME280;30544;42.196;24.336;2023-10-19T00:22:05;99313.56;;;12.55;nan
26376;BME280;30544;42.196;24.336;2023-10-19T00:24:41;99298.75;;;12.50;nan
26376;BME280;30544;42.196;24.336;2023-10-19T00:27:09;99313.78;;;12.49;nan
26376;BME280;30544;42.196;24.336;2023-10-19T00:29:41;99302.81;;;12.42;nan
26376;BME280;30544;42.196;24.336;2023-10-19T00:32:13;99296.94;;;12.39;nan
26376;BME280;30544;42.196;24.336;2023-10-19T00:34:40;99296.94;;;12.39;nan
26376;BME280;30544;42.196;24.336;2023-10-19T00:37:10;99295.50;;;12.36;nan
26376;BME280;30544;42.196;24.336;2023-10-19T00:39:44;99298.56;;;12.34;nan
26376;BME280;30544;42.196;24.336;2023-10-19T00:42:19;99293.31;;;12.38;nan
26376;BME280;30544;42.196;24.336;2023-10-19T00:44:55;99287.44;;;12.34;nan
26376;BME280;30544;42.196;24.336;2023-10-19T00:47:28;99290.47;;;12.33;nan
26376;BME280;30544;42.196;24.336;2023-10-19T00:50:05;99288.22;;;12.30;nan
26376;BME280;30544;42.196;24.336;2023-10-19T00:52:38;99286.44;;;12.24;nan
26376;BME280;30544;42.196;24.336;2023-10-19T00:55:12;99292.25;;;12.22;nan
26376;BME280;30544;42.196;24.336;2023-10-19T00:57:42;99292.78;;;12.19;nan
26376;BME280;30544;42.196;24.336;2023-10-19T01:00:14;99286.19;;;12.25;nan
26376;BME280;30544;42.196;24.336;2023-10-19T01:02:55;99281.72;;;12.24;nan
26376;BME280;30544;42.196;24.336;2023-10-19T01:05:25;99271.44;;;12.25;nan
26376;BME280;30544;42.196;24.336;2023-10-19T01:07:59;99286.13;;;12.20;nan
26376;BME280;30544;42.196;24.336;2023-10-19T01:10:28;99278.28;;;12.17;nan
26376;BME280;30544;42.196;24.336;2023-10-19T01:12:57;99279.91;;;12.13;nan
26376;BME280;30544;42.196;24.336;2023-10-19T01:15:25;99283.22;;;12.10;nan
26376;BME280;30544;42.196;24.336;2023-10-19T01:17:57;99271.41;;;12.03;nan
26376;BME280;30544;42.196;24.336;2023-10-19T01:20:25;99281.38;;;11.99;nan
26376;BME280;30544;42.196;24.336;2023-10-19T01:23:14;99272.97;;;11.94;nan
26376;BME280;30544;42.196;24.336;2023-10-19T01:25:52;99284.66;;;11.96;nan
26376;BME280;30544;42.196;24.336;2023-10-19T01:28:26;99285.75;;;11.95;nan
26376;BME280;30544;42.196;24.336;2023-10-19T01:31:08;99273.38;;;11.86;nan
26376;BME280;30544;42.196;24.336;2023-10-19T01:33:40;99274.41;;;11.80;nan
26376;BME280;30544;42.196;24.336;2023-10-19T01:36:07;99274.28;;;11.74;nan
26376;BME280;30544;42.196;24.336;2023-10-19T01:38:39;99283.72;;;11.73;nan
26376;BME280;30544;42.196;24.336;2023-10-19T01:41:07;99277.81;;;11.70;nan
26376;BME280;30544;42.196;24.336;2023-10-19T01:43:40;99288.63;;;11.66;nan
26376;BME280;30544;42.196;24.336;2023-10-19T01:46:06;99284.16;;;11.65;nan
26376;BME280;30544;42.196;24.336;2023-10-19T01:48:37;99290.22;;;11.62;nan
26376;BME280;30544;42.196;24.336;2023-10-19T01:51:07;99278.75;;;11.59;nan
26376;BME280;30544;42.196;24.336;2023-10-19T01:53:40;99275.63;;;11.55;nan
26376;BME280;30544;42.196;24.336;2023-10-19T01:56:08;99275.06;;;11.53;nan
26376;BME280;30544;42.196;24.336;2023-10-19T01:58:36;99265.88;;;11.53;nan
26376;BME280;30544;42.196;24.336;2023-10-19T02:01:02;99275.56;;;11.50;nan
26376;BME280;30544;42.196;24.336;2023-10-19T02:03:34;99275.56;;;11.50;nan
26376;BME280;30544;42.196;24.336;2023-10-19T02:06:01;99267.22;;;11.50;nan
26376;BME280;30544;42.196;24.336;2023-10-19T02:08:36;99280.47;;;11.43;nan
26376;BME280;30544;42.196;24.336;2023-10-19T02:11:05;99275.97;;;11.42;nan
26376;BME280;30544;42.196;24.336;2023-10-19T02:13:39;99277.25;;;11.34;nan
26376;BME280;30544;42.196;24.336;2023-10-19T02:16:05;99282.53;;;11.36;nan
26376;BME280;30544;42.196;24.336;2023-10-19T02:18:33;99282.78;;;11.34;nan
26376;BME280;30544;42.196;24.336;2023-10-19T02:21:00;99282.78;;;11.34;nan
26376;BME280;30544;42.196;24.336;2023-10-19T02:23:32;99283.56;;;11.30;nan
26376;BME280;30544;42.196;24.336;2023-10-19T02:26:00;99279.59;;;11.26;nan
26376;BME280;30544;42.196;24.336;2023-10-19T02:28:29;99276.72;;;11.21;nan
26376;BME280;30544;42.196;24.336;2023-10-19T02:30:58;99285.56;;;11.18;nan
26376;BME280;30544;42.196;24.336;2023-10-19T02:33:36;99293.88;;;11.18;nan
26376;BME280;30544;42.196;24.336;2023-10-19T02:36:04;99296.81;;;11.11;nan
26376;BME280;30544;42.196;24.336;2023-10-19T02:38:41;99303.69;;;11.08;nan
26376;BME280;30544;42.196;24.336;2023-10-19T02:41:09;99299.22;;;11.07;nan
26376;BME280;30544;42.196;24.336;2023-10-19T02:43:38;99302.50;;;11.04;nan
26376;BME280;30544;42.196;24.336;2023-10-19T02:46:04;99294.69;;;11.01;nan
26376;BME280;30544;42.196;24.336;2023-10-19T02:48:30;99304.09;;;11.00;nan
26376;BME280;30544;42.196;24.336;2023-10-19T02:50:56;99299.66;;;10.99;nan
26376;BME280;30544;42.196;24.336;2023-10-19T02:53:32;99301.84;;;10.97;nan
26376;BME280;30544;42.196;24.336;2023-10-19T02:55:59;99302.81;;;10.91;nan
26376;BME280;30544;42.196;24.336;2023-10-19T02:58:28;99305.13;;;10.94;nan
26376;BME280;30544;42.196;24.336;2023-10-19T03:00:56;99304.41;;;10.87;nan
26376;BME280;30544;42.196;24.336;2023-10-19T03:03:21;99299.44;;;10.89;nan
26376;BME280;30544;42.196;24.336;2023-10-19T03:05:48;99309.94;;;10.87;nan
26376;BME280;30544;42.196;24.336;2023-10-19T03:08:14;99293.31;;;10.87;nan
26376;BME280;30544;42.196;24.336;2023-10-19T03:10:44;99298.84;;;10.87;nan
26376;BME280;30544;42.196;24.336;2023-10-19T03:13:10;99307.50;;;10.91;nan
26376;BME280;30544;42.196;24.336;2023-10-19T03:15:40;99295.09;;;10.93;nan
26376;BME280;30544;42.196;24.336;2023-10-19T03:18:09;99300.53;;;10.88;nan
26376;BME280;30544;42.196;24.336;2023-10-19T03:20:37;99304.75;;;10.91;nan
26376;BME280;30544;42.196;24.336;2023-10-19T03:23:03;99308.84;;;10.88;nan
26376;BME280;30544;42.196;24.336;2023-10-19T03:25:31;99306.69;;;10.90;nan
26376;BME280;30544;42.196;24.336;2023-10-19T03:28:40;99309.94;;;10.87;nan
26376;BME280;30544;42.196;24.336;2023-10-19T03:31:08;99307.09;;;10.82;nan
26376;BME280;30544;42.196;24.336;2023-10-19T03:33:35;99299.84;;;10.81;nan
26376;BME280;30544;42.196;24.336;2023-10-19T03:36:06;99291.44;;;10.76;nan
26376;BME280;30544;42.196;24.336;2023-10-19T03:38:38;99292.88;;;10.78;nan
26376;BME280;30544;42.196;24.336;2023-10-19T03:41:06;99292.88;;;10.78;nan
26376;BME280;30544;42.196;24.336;2023-10-19T03:43:34;99292.03;;;10.78;nan
26376;BME280;30544;42.196;24.336;2023-10-19T03:46:02;99289.13;;;10.73;nan
26376;BME280;30544;42.196;24.336;2023-10-19T03:48:41;99286.84;;;10.70;nan
26376;BME280;30544;42.196;24.336;2023-10-19T03:51:07;99286.75;;;10.65;nan
26376;BME280;30544;42.196;24.336;2023-10-19T03:53:37;99276.28;;;10.55;nan
26376;BME280;30544;42.196;24.336;2023-10-19T03:56:09;99286.28;;;10.56;nan
26376;BME280;30544;42.196;24.336;2023-10-19T03:58:36;99282.69;;;10.55;nan
26376;BME280;30544;42.196;24.336;2023-10-19T04:01:04;99289.31;;;10.54;nan
26376;BME280;30544;42.196;24.336;2023-10-19T04:03:32;99276.44;;;10.48;nan
26376;BME280;30544;42.196;24.336;2023-10-19T04:06:03;99285.25;;;10.45;nan
26376;BME280;30544;42.196;24.336;2023-10-19T04:08:30;99281.31;;;10.41;nan
26376;BME280;30544;42.196;24.336;2023-10-19T04:11:03;99274.03;;;10.40;nan
26376;BME280;30544;42.196;24.336;2023-10-19T04:13:38;99270.22;;;10.41;nan
26376;BME280;30544;42.196;24.336;2023-10-19T04:16:04;99270.56;;;10.45;nan
26376;BME280;30544;42.196;24.336;2023-10-19T04:18:34;99273.81;;;10.42;nan
26376;BME280;30544;42.196;24.336;2023-10-19T04:21:05;99272.38;;;10.39;nan
26376;BME280;30544;42.196;24.336;2023-10-19T04:23:32;99274.53;;;10.37;nan
26376;BME280;30544;42.196;24.336;2023-10-19T04:26:02;99273.69;;;10.37;nan
26376;BME280;30544;42.196;24.336;2023-10-19T04:28:36;99269.00;;;10.37;nan
26376;BME280;30544;42.196;24.336;2023-10-19T04:31:10;99270.09;;;10.36;nan
26376;BME280;30544;42.196;24.336;2023-10-19T04:33:39;99274.19;;;10.34;nan
26376;BME280;30544;42.196;24.336;2023-10-19T04:36:09;99269.50;;;10.34;nan
26376;BME280;30544;42.196;24.336;2023-10-19T04:38:37;99267.81;;;10.33;nan
26376;BME280;30544;42.196;24.336;2023-10-19T04:41:04;99272.00;;;10.36;nan
26376;BME280;30544;42.196;24.336;2023-10-19T04:43:34;99271.19;;;10.35;nan
26376;BME280;30544;42.196;24.336;2023-10-19T04:46:04;99274.28;;;10.39;nan
26376;BME280;30544;42.196;24.336;2023-10-19T04:48:34;99278.53;;;10.41;nan
26376;BME280;30544;42.196;24.336;2023-10-19T04:51:01;99274.03;;;10.40;nan
26376;BME280;30544;42.196;24.336;2023-10-19T04:53:31;99275.13;;;10.39;nan
26376;BME280;30544;42.196;24.336;2023-10-19T04:55:58;99276.59;;;10.42;nan
26376;BME280;30544;42.196;24.336;2023-10-19T04:58:26;99279.38;;;10.42;nan
26376;BME280;30544;42.196;24.336;2023-10-19T05:00:53;99278.53;;;10.41;nan
26376;BME280;30544;42.196;24.336;2023-10-19T05:03:20;99269.72;;;10.44;nan
26376;BME280;30544;42.196;24.336;2023-10-19T05:05:47;99268.63;;;10.45;nan
26376;BME280;30544;42.196;24.336;2023-10-19T05:08:14;99264.16;;;10.44;nan
26376;BME280;30544;42.196;24.336;2023-10-19T05:10:42;99269.81;;;10.49;nan
26376;BME280;30544;42.196;24.336;2023-10-19T05:13:09;99272.59;;;10.49;nan
26376;BME280;30544;42.196;24.336;2023-10-19T05:15:35;99282.09;;;10.53;nan
26376;BME280;30544;42.196;24.336;2023-10-19T05:18:04;99274.88;;;10.52;nan
26376;BME280;30544;42.196;24.336;2023-10-19T05:20:31;99283.19;;;10.52;nan
26376;BME280;30544;42.196;24.336;2023-10-19T05:22:58;99279.31;;;10.53;nan
26376;BME280;30544;42.196;24.336;2023-10-19T05:25:26;99284.63;;;10.55;nan
26376;BME280;30544;42.196;24.336;2023-10-19T05:27:54;99281.00;;;10.54;nan
26376;BME280;30544;42.196;24.336;2023-10-19T05:30:20;99290.75;;;10.57;nan
26376;BME280;30544;42.196;24.336;2023-10-19T05:32:48;99286.88;;;10.58;nan
26376;BME280;30544;42.196;24.336;2023-10-19T05:35:16;99288.34;;;10.61;nan
26376;BME280;30544;42.196;24.336;2023-10-19T05:37:48;99290.53;;;10.59;nan
26376;BME280;30544;42.196;24.336;2023-10-19T05:40:15;99283.91;;;10.60;nan
26376;BME280;30544;42.196;24.336;2023-10-19T05:42:43;99295.09;;;10.65;nan
26376;BME280;30544;42.196;24.336;2023-10-19T05:45:13;99296.88;;;10.71;nan
26376;BME280;30544;42.196;24.336;2023-10-19T05:47:42;99298.66;;;10.77;nan
26376;BME280;30544;42.196;24.336;2023-10-19T05:50:09;99294.41;;;10.86;nan
26376;BME280;30544;42.196;24.336;2023-10-19T05:52:39;99305.78;;;10.73;nan
26376;BME280;30544;42.196;24.336;2023-10-19T05:55:08;99296.25;;;10.80;nan
26376;BME280;30544;42.196;24.336;2023-10-19T05:57:36;99300.69;;;10.81;nan
26376;BME280;30544;42.196;24.336;2023-10-19T06:00:07;99304.31;;;10.82;nan
26376;BME280;30544;42.196;24.336;2023-10-19T06:02:40;99299.94;;;10.86;nan
26376;BME280;30544;42.196;24.336;2023-10-19T06:05:09;99301.84;;;10.97;nan
26376;BME280;30544;42.196;24.336;2023-10-19T06:07:36;99305.63;;;11.08;nan
26376;BME280;30544;42.196;24.336;2023-10-19T06:10:03;99293.97;;;11.23;nan
26376;BME280;30544;42.196;24.336;2023-10-19T06:12:31;99301.41;;;11.34;nan
26376;BME280;30544;42.196;24.336;2023-10-19T06:14:58;99301.13;;;11.35;nan
26376;BME280;30544;42.196;24.336;2023-10-19T06:17:25;99300.75;;;11.43;nan
26376;BME280;30544;42.196;24.336;2023-10-19T06:19:55;99299.41;;;11.46;nan
26376;BME280;30544;42.196;24.336;2023-10-19T06:22:21;99299.53;;;11.56;nan
26376;BME280;30544;42.196;24.336;2023-10-19T06:24:48;99301.84;;;11.59;nan
26376;BME280;30544;42.196;24.336;2023-10-19T06:27:15;99302.91;;;11.58;nan
26376;BME280;30544;42.196;24.336;2023-10-19T06:29:42;99305.69;;;11.58;nan
26376;BME280;30544;42.196;24.336;2023-10-19T06:32:09;99313.44;;;11.56;nan
26376;BME280;30544;42.196;24.336;2023-10-19T06:34:38;99299.41;;;11.63;nan
26376;BME280;30544;42.196;24.336;2023-10-19T06:37:06;99307.16;;;11.61;nan
26376;BME280;30544;42.196;24.336;2023-10-19T06:39:37;99304.00;;;11.74;nan
26376;BME280;30544;42.196;24.336;2023-10-19T06:42:06;99309.44;;;11.81;nan
26376;BME280;30544;42.196;24.336;2023-10-19T06:44:38;99310.28;;;11.81;nan
26376;BME280;30544;42.196;24.336;2023-10-19T06:47:05;99305.47;;;11.93;nan
26376;BME280;30544;42.196;24.336;2023-10-19T06:49:32;99315.56;;;11.99;nan
26376;BME280;30544;42.196;24.336;2023-10-19T06:51:59;99300.91;;;12.04;nan
26376;BME280;30544;42.196;24.336;2023-10-19T06:54:27;99291.47;;;12.05;nan
26376;BME280;30544;42.196;24.336;2023-10-19T06:56:54;99292.72;;;12.14;nan
26376;BME280;30544;42.196;24.336;2023-10-19T06:59:21;99302.81;;;12.20;nan
26376;BME280;30544;42.196;24.336;2023-10-19T07:01:49;99302.03;;;12.25;nan
26376;BME280;30544;42.196;24.336;2023-10-19T07:04:16;99302.44;;;12.33;nan
26376;BME280;30544;42.196;24.336;2023-10-19T07:06:43;99301.75;;;12.43;nan
26376;BME280;30544;42.196;24.336;2023-10-19T07:09:10;99299.53;;;12.45;nan
26376;BME280;30544;42.196;24.336;2023-10-19T07:11:38;99298.81;;;12.55;nan
26376;BME280;30544;42.196;24.336;2023-10-19T07:14:05;99295.59;;;12.63;nan
26376;BME280;30544;42.196;24.336;2023-10-19T07:16:33;99299.22;;;12.63;nan
26376;BME280;30544;42.196;24.336;2023-10-19T07:19:00;99294.03;;;12.72;nan
26376;BME280;30544;42.196;24.336;2023-10-19T07:21:27;99281.88;;;12.78;nan
26376;BME280;30544;42.196;24.336;2023-10-19T07:23:57;99285.81;;;12.82;nan
26376;BME280;30544;42.196;24.336;2023-10-19T07:26:26;99289.78;;;12.91;nan
26376;BME280;30544;42.196;24.336;2023-10-19T07:28:58;99295.25;;;13.08;nan
26376;BME280;30544;42.196;24.336;2023-10-19T07:31:25;99303.50;;;13.20;nan
26376;BME280;30544;42.196;24.336;2023-10-19T07:33:52;99294.63;;;13.23;nan
26376;BME280;30544;42.196;24.336;2023-10-19T07:36:21;99299.72;;;13.31;nan
26376;BME280;30544;42.196;24.336;2023-10-19T07:38:50;99293.13;;;13.42;nan
26376;BME280;30544;42.196;24.336;2023-10-19T07:41:17;99293.25;;;13.58;nan
26376;BME280;30544;42.196;24.336;2023-10-19T07:43:44;99290.31;;;13.69;nan
26376;BME280;30544;42.196;24.336;2023-10-19T07:46:12;99288.66;;;13.73;nan
26376;BME280;30544;42.196;24.336;2023-10-19T07:48:39;99289.00;;;13.82;nan
26376;BME280;30544;42.196;24.336;2023-10-19T07:51:05;99286.56;;;13.91;nan
26376;BME280;30544;42.196;24.336;2023-10-19T07:53:32;99296.94;;;14.00;nan
26376;BME280;30544;42.196;24.336;2023-10-19T07:56:01;99295.03;;;14.06;nan
26376;BME280;30544;42.196;24.336;2023-10-19T07:58:28;99298.47;;;14.18;nan
26376;BME280;30544;42.196;24.336;2023-10-19T08:00:55;99289.84;;;14.25;nan
26376;BME280;30544;42.196;24.336;2023-10-19T08:03:24;99276.25;;;14.38;nan
26376;BME280;30544;42.196;24.336;2023-10-19T08:05:50;99278.22;;;14.43;nan
26376;BME280;30544;42.196;24.336;2023-10-19T08:08:17;99280.53;;;14.51;nan
26376;BME280;30544;42.196;24.336;2023-10-19T08:10:44;99285.31;;;14.61;nan
26376;BME280;30544;42.196;24.336;2023-10-19T08:13:12;99278.09;;;14.65;nan
26376;BME280;30544;42.196;24.336;2023-10-19T08:15:39;99270.84;;;14.74;nan
26376;BME280;30544;42.196;24.336;2023-10-19T08:18:06;99268.09;;;14.84;nan
26376;BME280;30544;42.196;24.336;2023-10-19T08:20:34;99273.97;;;14.88;nan
26376;BME280;30544;42.196;24.336;2023-10-19T08:23:02;99257.81;;;15.00;nan
26376;BME280;30544;42.196;24.336;2023-10-19T08:25:31;99250.56;;;15.09;nan
26376;BME280;30544;42.196;24.336;2023-10-19T08:27:58;99240.81;;;15.12;nan
26376;BME280;30544;42.196;24.336;2023-10-19T08:30:24;99233.28;;;15.17;nan
26376;BME280;30544;42.196;24.336;2023-10-19T08:32:51;99232.44;;;15.22;nan
26376;BME280;30544;42.196;24.336;2023-10-19T08:35:20;99239.16;;;15.31;nan
26376;BME280;30544;42.196;24.336;2023-10-19T08:37:51;99241.09;;;15.41;nan
26376;BME280;30544;42.196;24.336;2023-10-19T08:40:19;99234.69;;;15.45;nan
26376;BME280;30544;42.196;24.336;2023-10-19T08:42:47;99235.25;;;15.52;nan
26376;BME280;30544;42.196;24.336;2023-10-19T08:45:14;99233.56;;;15.61;nan
26376;BME280;30544;42.196;24.336;2023-10-19T08:47:43;99232.19;;;15.69;nan
26376;BME280;30544;42.196;24.336;2023-10-19T08:50:16;99239.47;;;15.80;nan
26376;BME280;30544;42.196;24.336;2023-10-19T08:52:46;99239.44;;;15.85;nan
26376;BME280;30544;42.196;24.336;2023-10-19T08:55:15;99239.41;;;15.95;nan
26376;BME280;30544;42.196;24.336;2023-10-19T08:57:42;99229.94;;;15.97;nan
26376;BME280;30544;42.196;24.336;2023-10-19T09:00:10;99237.19;;;15.98;nan
26376;BME280;30544;42.196;24.336;2023-10-19T09:02:38;99228.50;;;16.04;nan
26376;BME280;30544;42.196;24.336;2023-10-19T09:05:08;99232.09;;;16.20;nan
26376;BME280;30544;42.196;24.336;2023-10-19T09:07:45;99221.97;;;16.29;nan
26376;BME280;30544;42.196;24.336;2023-10-19T09:10:16;99220.28;;;16.38;nan
26376;BME280;30544;42.196;24.336;2023-10-19T09:12:43;99209.06;;;16.48;nan
26376;BME280;30544;42.196;24.336;2023-10-19T09:15:21;99212.03;;;16.62;nan
26376;BME280;30544;42.196;24.336;2023-10-19T09:17:49;99209.78;;;16.74;nan
26376;BME280;30544;42.196;24.336;2023-10-19T09:20:20;99209.19;;;16.77;nan
26376;BME280;30544;42.196;24.336;2023-10-19T09:22:52;99204.22;;;16.69;nan
26376;BME280;30544;42.196;24.336;2023-10-19T09:25:21;99203.09;;;16.65;nan
26376;BME280;30544;42.196;24.336;2023-10-19T09:27:48;99192.69;;;16.76;nan
26376;BME280;30544;42.196;24.336;2023-10-19T09:30:16;99198.19;;;16.91;nan
26376;BME280;30544;42.196;24.336;2023-10-19T09:32:46;99198.44;;;17.00;nan
26376;BME280;30544;42.196;24.336;2023-10-19T09:35:14;99204.53;;;17.07;nan
26376;BME280;30544;42.196;24.336;2023-10-19T09:37:41;99206.75;;;17.15;nan
26376;BME280;30544;42.196;24.336;2023-10-19T09:40:09;99201.97;;;17.16;nan
26376;BME280;30544;42.196;24.336;2023-10-19T09:42:40;99193.28;;;17.17;nan
26376;BME280;30544;42.196;24.336;2023-10-19T09:45:11;99193.56;;;17.16;nan
26376;BME280;30544;42.196;24.336;2023-10-19T09:47:41;99200.91;;;17.06;nan
26376;BME280;30544;42.196;24.336;2023-10-19T09:50:12;99203.59;;;17.22;nan
26376;BME280;30544;42.196;24.336;2023-10-19T09:52:39;99194.47;;;17.40;nan
26376;BME280;30544;42.196;24.336;2023-10-19T09:55:10;99199.47;;;17.48;nan
26376;BME280;30544;42.196;24.336;2023-10-19T09:57:47;99205.28;;;17.57;nan
26376;BME280;30544;42.196;24.336;2023-10-19T10:00:15;99196.50;;;17.68;nan
26376;BME280;30544;42.196;24.336;2023-10-19T10:02:49;99187.97;;;17.79;nan
26376;BME280;30544;42.196;24.336;2023-10-19T10:05:47;99190.63;;;17.94;nan
26376;BME280;30544;42.196;24.336;2023-10-19T10:08:32;99189.75;;;17.98;nan
26376;BME280;30544;42.196;24.336;2023-10-19T10:11:13;99193.88;;;18.06;nan
26376;BME280;30544;42.196;24.336;2023-10-19T10:13:42;99189.41;;;18.05;nan
26376;BME280;30544;42.196;24.336;2023-10-19T10:16:09;99183.78;;;18.05;nan
26376;BME280;30544;42.196;24.336;2023-10-19T10:18:41;99178.91;;;18.16;nan
26376;BME280;30544;42.196;24.336;2023-10-19T10:21:11;99179.28;;;18.28;nan
26376;BME280;30544;42.196;24.336;2023-10-19T10:23:42;99173.56;;;18.38;nan
26376;BME280;30544;42.196;24.336;2023-10-19T10:26:12;99169.09;;;18.37;nan
26376;BME280;30544;42.196;24.336;2023-10-19T10:28:39;99172.13;;;18.41;nan
26376;BME280;30544;42.196;24.336;2023-10-19T10:31:09;99163.69;;;18.41;nan
26376;BME280;30544;42.196;24.336;2023-10-19T10:33:40;99154.44;;;18.40;nan
26376;BME280;30544;42.196;24.336;2023-10-19T10:36:07;99145.19;;;18.40;nan
26376;BME280;30544;42.196;24.336;2023-10-19T10:38:35;99139.03;;;18.38;nan
26376;BME280;30544;42.196;24.336;2023-10-19T10:41:03;99138.28;;;18.32;nan
26376;BME280;30544;42.196;24.336;2023-10-19T10:43:30;99132.09;;;18.30;nan
26376;BME280;30544;42.196;24.336;2023-10-19T10:46:04;99125.09;;;18.32;nan
26376;BME280;30544;42.196;24.336;2023-10-19T10:48:32;99118.34;;;18.33;nan
26376;BME280;30544;42.196;24.336;2023-10-19T10:51:01;99118.19;;;18.44;nan
26376;BME280;30544;42.196;24.336;2023-10-19T10:53:28;99105.38;;;18.56;nan
26376;BME280;30544;42.196;24.336;2023-10-19T10:56:00;99111.94;;;18.71;nan
26376;BME280;30544;42.196;24.336;2023-10-19T10:58:26;99089.00;;;18.82;nan
26376;BME280;30544;42.196;24.336;2023-10-19T11:00:54;99079.88;;;18.90;nan
26376;BME280;30544;42.196;24.336;2023-10-19T11:03:22;99071.28;;;19.01;nan
26376;BME280;30544;42.196;24.336;2023-10-19T11:05:51;99064.34;;;19.12;nan
26376;BME280;30544;42.196;24.336;2023-10-19T11:08:17;99056.44;;;19.14;nan
26376;BME280;30544;42.196;24.336;2023-10-19T11:10:46;99047.59;;;19.20;nan
26376;BME280;30544;42.196;24.336;2023-10-19T11:13:14;99050.63;;;19.24;nan
26376;BME280;30544;42.196;24.336;2023-10-19T11:15:48;99057.13;;;19.38;nan
26376;BME280;30544;42.196;24.336;2023-10-19T11:18:28;99070.38;;;19.51;nan
26376;BME280;30544;42.196;24.336;2023-10-19T11:20:57;99067.31;;;19.67;nan
26376;BME280;30544;42.196;24.336;2023-10-19T11:23:40;99067.00;;;19.68;nan
26376;BME280;30544;42.196;24.336;2023-10-19T11:26:08;99061.16;;;19.78;nan
26376;BME280;30544;42.196;24.336;2023-10-19T11:28:38;99051.97;;;19.73;nan
26376;BME280;30544;42.196;24.336;2023-10-19T11:31:15;99047.81;;;19.84;nan
26376;BME280;30544;42.196;24.336;2023-10-19T11:33:43;99047.50;;;19.86;nan
26376;BME280;30544;42.196;24.336;2023-10-19T11:36:12;99040.00;;;19.81;nan
26376;BME280;30544;42.196;24.336;2023-10-19T11:38:42;99036.34;;;19.80;nan
26376;BME280;30544;42.196;24.336;2023-10-19T11:41:10;99024.69;;;19.87;nan
26376;BME280;30544;42.196;24.336;2023-10-19T11:43:38;99019.56;;;19.75;nan
26376;BME280;30544;42.196;24.336;2023-10-19T11:46:05;99011.44;;;19.74;nan
26376;BME280;30544;42.196;24.336;2023-10-19T11:48:32;99021.16;;;19.68;nan
26376;BME280;30544;42.196;24.336;2023-10-19T11:51:01;99014.47;;;19.64;nan
26376;BME280;30544;42.196;24.336;2023-10-19T11:53:31;99014.06;;;19.57;nan
26376;BME280;30544;42.196;24.336;2023-10-19T11:56:00;99008.00;;;19.49;nan
26376;BME280;30544;42.196;24.336;2023-10-19T11:58:27;99004.22;;;19.40;nan
26376;BME280;30544;42.196;24.336;2023-10-19T12:00:54;99007.44;;;19.34;nan
26376;BME280;30544;42.196;24.336;2023-10-19T12:03:21;99002.84;;;19.24;nan
26376;BME280;30544;42.196;24.336;2023-10-19T12:05:48;99005.25;;;19.17;nan
26376;BME280;30544;42.196;24.336;2023-10-19T12:08:15;98998.53;;;19.13;nan
26376;BME280;30544;42.196;24.336;2023-10-19T12:10:44;98995.94;;;19.03;nan
26376;BME280;30544;42.196;24.336;2023-10-19T12:13:10;98991.53;;;18.97;nan
26376;BME280;30544;42.196;24.336;2023-10-19T12:15:37;98986.22;;;18.95;nan
26376;BME280;30544;42.196;24.336;2023-10-19T12:18:04;98995.50;;;18.96;nan
26376;BME280;30544;42.196;24.336;2023-10-19T12:20:33;98996.63;;;18.94;nan
26376;BME280;30544;42.196;24.336;2023-10-19T12:23:01;98981.13;;;18.83;nan
26376;BME280;30544;42.196;24.336;2023-10-19T12:25:30;98988.94;;;18.86;nan
26376;BME280;30544;42.196;24.336;2023-10-19T12:27:59;98980.81;;;18.85;nan
26376;BME280;30544;42.196;24.336;2023-10-19T12:30:25;98967.06;;;18.83;nan
26376;BME280;30544;42.196;24.336;2023-10-19T12:33:00;98975.72;;;18.87;nan
26376;BME280;30544;42.196;24.336;2023-10-19T12:35:26;98972.06;;;18.86;nan
26376;BME280;30544;42.196;24.336;2023-10-19T12:38:07;98970.78;;;18.79;nan
26376;BME280;30544;42.196;24.336;2023-10-19T12:40:41;98972.03;;;18.73;nan
26376;BME280;30544;42.196;24.336;2023-10-19T12:43:11;98967.22;;;18.73;nan
26376;BME280;30544;42.196;24.336;2023-10-19T12:45:38;98958.50;;;18.75;nan
26376;BME280;30544;42.196;24.336;2023-10-19T12:48:05;98960.16;;;18.76;nan
26376;BME280;30544;42.196;24.336;2023-10-19T12:50:33;98958.19;;;18.76;nan
26376;BME280;30544;42.196;24.336;2023-10-19T12:53:02;98958.72;;;18.78;nan
26376;BME280;30544;42.196;24.336;2023-10-19T12:55:29;98952.50;;;18.81;nan
26376;BME280;30544;42.196;24.336;2023-10-19T12:57:56;98949.25;;;18.74;nan
26376;BME280;30544;42.196;24.336;2023-10-19T13:00:26;98941.34;;;18.76;nan
26376;BME280;30544;42.196;24.336;2023-10-19T13:02:54;98935.66;;;18.81;nan
26376;BME280;30544;42.196;24.336;2023-10-19T13:05:27;98927.75;;;18.83;nan
26376;BME280;30544;42.196;24.336;2023-10-19T13:07:54;98933.34;;;18.83;nan
26376;BME280;30544;42.196;24.336;2023-10-19T13:10:27;98934.50;;;18.82;nan
26376;BME280;30544;42.196;24.336;2023-10-19T13:12:58;98935.03;;;18.84;nan
26376;BME280;30544;42.196;24.336;2023-10-19T13:15:27;98926.50;;;18.89;nan
26376;BME280;30544;42.196;24.336;2023-10-19T13:17:56;98927.22;;;18.95;nan
26376;BME280;30544;42.196;24.336;2023-10-19T13:20:25;98924.94;;;18.97;nan
26376;BME280;30544;42.196;24.336;2023-10-19T13:22:52;98925.03;;;18.92;nan